createdAt,value
2022-12-13T00:01:47.000Z,6.00
2022-12-13T00:04:14.328Z,4.63
2022-12-13T00:06:41.539Z,3.33
2022-12-13T00:09:08.732Z,5.05
2022-12-13T00:11:36.048Z,5.00
2022-12-13T00:14:03.146Z,4.25
2022-12-13T00:16:32.082Z,4.60
2022-12-13T00:19:01.007Z,4.45
2022-12-13T00:21:33.168Z,4.47
2022-12-13T00:24:01.189Z,6.00
2022-12-13T00:26:32.868Z,4.55
2022-12-13T00:29:01.586Z,4.45
2022-12-13T00:34:19.559Z,4.73
2022-12-13T00:36:46.967Z,9.07
2022-12-13T00:39:16.797Z,6.90
2022-12-13T00:41:44.957Z,5.80
2022-12-13T00:44:13.458Z,6.88
2022-12-13T00:46:42.054Z,6.88
2022-12-13T00:49:10.774Z,6.38
2022-12-13T00:51:38.666Z,5.18
2022-12-13T00:54:06.815Z,4.72
2022-12-13T00:56:34.308Z,4.72
2022-12-13T00:59:01.809Z,3.63
2022-12-13T01:01:33.696Z,4.93
2022-12-13T01:04:02.744Z,5.65
2022-12-13T01:06:39.486Z,5.28
2022-12-13T01:09:12.138Z,4.90
2022-12-13T01:11:39.418Z,4.28
2022-12-13T01:14:06.578Z,6.18
2022-12-13T01:16:33.837Z,3.88
2022-12-13T01:19:01.030Z,6.38
2022-12-13T01:21:29.853Z,4.43
2022-12-13T01:24:02.360Z,4.63
2022-12-13T01:26:30.128Z,5.05
2022-12-13T01:28:57.527Z,4.60
2022-12-13T01:31:25.067Z,7.55
2022-12-13T01:33:52.137Z,4.80
2022-12-13T01:36:27.065Z,5.03
2022-12-13T01:38:54.342Z,5.70
2022-12-13T01:41:27.698Z,5.78
2022-12-13T01:44:03.827Z,4.28
2022-12-13T01:46:35.502Z,5.60
2022-12-13T01:49:19.688Z,3.15
2022-12-13T01:52:03.166Z,3.88
2022-12-13T01:54:36.798Z,5.65
2022-12-13T01:57:07.486Z,3.88
2022-12-13T01:59:36.797Z,4.13
2022-12-13T02:02:05.359Z,5.60
2022-12-13T02:04:44.660Z,4.55
2022-12-13T02:07:22.878Z,6.88
2022-12-13T02:09:57.105Z,4.20
2022-12-13T02:12:32.727Z,5.22
2022-12-13T02:15:02.818Z,4.90
2022-12-13T02:17:51.474Z,4.25
2022-12-13T02:20:53.858Z,5.63
2022-12-13T02:23:58.470Z,4.70
2022-12-13T02:26:34.307Z,5.05
2022-12-13T02:29:39.578Z,3.80
2022-12-13T02:32:35.897Z,4.80
2022-12-13T02:35:10.315Z,5.70
2022-12-13T02:37:43.412Z,4.90
2022-12-13T02:40:31.506Z,4.80
2022-12-13T02:43:04.788Z,5.75
2022-12-13T02:45:41.479Z,3.90
2022-12-13T02:48:11.615Z,4.70
2022-12-13T02:50:39.798Z,5.32
2022-12-13T02:53:09.091Z,5.35
2022-12-13T02:55:39.731Z,6.13
2022-12-13T02:58:07.213Z,5.57
2022-12-13T03:00:52.674Z,4.50
2022-12-13T03:03:50.513Z,5.90
2022-12-13T03:06:43.599Z,6.70
2022-12-13T03:09:29.572Z,2.88
2022-12-13T03:12:27.579Z,6.25
2022-12-13T03:15:23.713Z,4.32
2022-12-13T03:18:15.555Z,6.43
2022-12-13T03:20:55.015Z,5.60
2022-12-13T03:23:23.298Z,5.95
2022-12-13T03:25:56.472Z,5.13
2022-12-13T03:28:24.492Z,6.75
2022-12-13T03:30:51.568Z,5.53
2022-12-13T03:33:19.061Z,5.72
2022-12-13T03:35:46.701Z,7.18
2022-12-13T03:38:21.732Z,5.07
2022-12-13T03:40:57.241Z,5.90
2022-12-13T03:43:25.018Z,6.57
2022-12-13T03:45:53.581Z,8.30
2022-12-13T03:48:22.928Z,5.35
2022-12-13T03:50:52.570Z,5.32
2022-12-13T03:53:32.370Z,4.57
2022-12-13T03:56:06.360Z,5.05
2022-12-13T03:58:37.779Z,4.60
2022-12-13T04:01:07.807Z,4.65
2022-12-13T04:03:36.360Z,4.40
2022-12-13T04:06:04.569Z,7.18
2022-12-13T04:08:31.910Z,5.72
2022-12-13T04:10:59.053Z,5.32
2022-12-13T04:13:35.009Z,5.10
2022-12-13T04:16:03.132Z,6.25
2022-12-13T04:18:30.570Z,4.07
2022-12-13T04:20:58.277Z,4.35
2022-12-13T04:23:25.374Z,4.78
2022-12-13T04:25:52.382Z,5.85
2022-12-13T04:28:22.222Z,5.30
2022-12-13T04:30:53.961Z,4.50
2022-12-13T04:33:24.703Z,6.45
2022-12-13T04:35:52.202Z,5.03
2022-12-13T04:38:20.278Z,5.15
2022-12-13T04:40:47.469Z,2.80
2022-12-13T04:43:14.688Z,4.80
2022-12-13T04:45:42.230Z,4.32
2022-12-13T04:48:09.489Z,3.17
2022-12-13T04:50:37.192Z,5.82
2022-12-13T04:53:04.341Z,4.47
2022-12-13T04:55:31.394Z,5.18
2022-12-13T04:57:58.488Z,4.75
2022-12-13T05:00:26.033Z,4.07
2022-12-13T05:02:53.090Z,5.82
2022-12-13T05:05:20.124Z,2.72
2022-12-13T05:07:47.254Z,3.55
2022-12-13T05:10:35.707Z,4.22
2022-12-13T05:13:02.762Z,3.58
2022-12-13T05:15:32.783Z,3.63
2022-12-13T05:18:10.704Z,4.07
2022-12-13T05:20:39.890Z,3.47
2022-12-13T05:23:07.476Z,3.10
2022-12-13T05:25:37.230Z,3.70
2022-12-13T05:28:26.827Z,3.85
2022-12-13T05:30:53.469Z,3.60
2022-12-13T05:33:22.066Z,3.50
2022-12-13T05:35:49.122Z,3.78
2022-12-13T05:38:16.250Z,3.28
2022-12-13T05:40:43.523Z,4.35
2022-12-13T05:43:21.523Z,4.40
2022-12-13T05:45:49.964Z,3.30
2022-12-13T05:48:24.933Z,4.15
2022-12-13T05:51:09.957Z,4.15
2022-12-13T05:53:40.524Z,3.38
2022-12-13T05:56:08.319Z,4.97
2022-12-13T05:58:36.539Z,3.80
2022-12-13T06:01:12.978Z,4.22
2022-12-13T06:03:41.148Z,5.22
2022-12-13T06:06:10.365Z,3.72
2022-12-13T06:08:37.800Z,4.05
2022-12-13T06:11:10.284Z,4.68
2022-12-13T06:13:44.135Z,4.00
2022-12-13T06:16:22.822Z,4.63
2022-12-13T06:18:59.395Z,6.00
2022-12-13T06:21:40.637Z,8.48
2022-12-13T06:24:17.399Z,7.88
2022-12-13T06:26:45.562Z,7.35
2022-12-13T06:29:23.905Z,4.93
2022-12-13T06:32:03.297Z,5.55
2022-12-13T06:34:33.998Z,4.45
2022-12-13T06:37:04.011Z,4.63
2022-12-13T06:39:34.010Z,5.22
2022-12-13T06:42:06.750Z,6.20
2022-12-13T06:44:34.851Z,6.72
2022-12-13T06:47:10.280Z,7.72
2022-12-13T06:49:40.772Z,7.18
2022-12-13T06:52:11.850Z,10.55
2022-12-13T06:54:39.247Z,11.75
2022-12-13T06:57:06.318Z,9.27
2022-12-13T06:59:33.383Z,7.75
2022-12-13T07:02:03.226Z,8.02
2022-12-13T07:04:31.694Z,9.93
2022-12-13T07:07:01.709Z,8.20
2022-12-13T07:09:33.198Z,8.23
2022-12-13T07:14:27.698Z,8.07
2022-12-13T07:17:02.885Z,14.55
2022-12-13T07:19:35.241Z,8.85
2022-12-13T07:22:06.387Z,11.02
2022-12-13T07:24:35.048Z,10.25
2022-12-13T07:27:03.598Z,15.55
2022-12-13T07:29:30.633Z,17.55
2022-12-13T07:32:00.991Z,24.92
2022-12-13T07:34:29.790Z,14.48
2022-12-13T07:36:56.875Z,20.90
2022-12-13T07:39:28.594Z,20.92
2022-12-13T07:41:56.670Z,18.60
2022-12-13T07:44:24.864Z,15.75
2022-12-13T07:46:52.234Z,25.27
2022-12-13T07:49:19.694Z,30.05
2022-12-13T07:51:47.703Z,22.52
2022-12-13T07:54:15.011Z,20.77
2022-12-13T07:56:42.140Z,17.90
2022-12-13T07:59:10.663Z,11.27
2022-12-13T08:01:37.889Z,8.85
2022-12-13T08:04:05.417Z,7.88
2022-12-13T08:06:37.874Z,12.55
2022-12-13T08:09:06.044Z,8.18
2022-12-13T08:11:33.550Z,9.52
2022-12-13T08:14:00.754Z,6.95
2022-12-13T08:16:30.169Z,7.35
2022-12-13T08:19:02.463Z,7.10
2022-12-13T08:21:56.869Z,6.75
2022-12-13T08:24:29.432Z,9.25
2022-12-13T08:27:01.545Z,6.03
2022-12-13T08:29:34.142Z,8.85
2022-12-13T08:32:05.393Z,8.43
2022-12-13T08:34:32.389Z,7.68
2022-12-13T08:37:01.683Z,8.18
2022-12-13T08:39:35.282Z,13.00
2022-12-13T08:42:14.914Z,11.10
2022-12-13T08:44:48.953Z,10.20
2022-12-13T08:47:22.925Z,10.52
2022-12-13T08:49:51.189Z,8.68
2022-12-13T08:52:19.586Z,9.63
2022-12-13T08:54:46.649Z,13.45
2022-12-13T08:57:13.615Z,10.13
2022-12-13T08:59:40.792Z,13.20
2022-12-13T09:02:13.753Z,10.57
2022-12-13T09:04:40.863Z,8.98
2022-12-13T09:07:07.989Z,9.63
2022-12-13T09:09:35.029Z,10.35
2022-12-13T09:12:10.764Z,8.50
2022-12-13T09:14:45.334Z,13.00
2022-12-13T09:17:24.147Z,11.80
2022-12-13T09:19:58.516Z,15.30
2022-12-13T09:22:33.300Z,11.20
2022-12-13T09:25:03.034Z,8.27
2022-12-13T09:27:39.997Z,12.65
2022-12-13T09:30:10.906Z,11.73
2022-12-13T09:32:37.903Z,11.43
2022-12-13T09:35:05.180Z,11.70
2022-12-13T09:37:32.260Z,11.70
2022-12-13T09:39:59.268Z,10.02
2022-12-13T09:42:48.242Z,7.97
2022-12-13T09:45:22.754Z,16.52
2022-12-13T09:48:01.323Z,12.20
2022-12-13T09:50:37.529Z,9.27
2022-12-13T09:53:12.138Z,8.50
2022-12-13T09:55:51.249Z,7.82
2022-12-13T09:58:21.356Z,9.13
2022-12-13T10:00:51.744Z,8.63
2022-12-13T10:03:21.013Z,10.52
2022-12-13T10:06:15.184Z,8.15
2022-12-13T10:08:58.372Z,8.98
2022-12-13T10:11:31.278Z,7.07
2022-12-13T10:14:05.574Z,9.35
2022-12-13T10:16:38.429Z,6.38
2022-12-13T10:19:35.750Z,7.45
2022-12-13T10:22:13.211Z,7.90
2022-12-13T10:25:00.919Z,8.15
2022-12-13T10:27:43.524Z,6.43
2022-12-13T10:30:28.908Z,7.07
2022-12-13T10:32:56.344Z,9.40
2022-12-13T10:35:27.769Z,4.82
2022-12-13T10:37:56.883Z,7.05
2022-12-13T10:40:35.094Z,7.68
2022-12-13T10:43:27.592Z,7.78
2022-12-13T10:46:00.345Z,6.65
2022-12-13T10:48:52.128Z,5.28
2022-12-13T10:51:21.933Z,5.90
2022-12-13T10:53:53.563Z,4.78
2022-12-13T10:56:23.964Z,5.10
2022-12-13T10:59:22.788Z,5.75
2022-12-13T11:01:50.144Z,5.70
2022-12-13T11:04:25.398Z,8.98
2022-12-13T11:06:54.408Z,8.73
2022-12-13T11:09:38.713Z,8.07
2022-12-13T11:12:16.479Z,5.47
2022-12-13T11:15:06.509Z,5.85
2022-12-13T11:17:44.696Z,7.47
2022-12-13T11:20:31.775Z,9.32
2022-12-13T11:23:26.112Z,8.30
2022-12-13T11:26:11.448Z,11.00
2022-12-13T11:28:59.643Z,8.88
2022-12-13T11:31:57.442Z,8.40
2022-12-13T11:34:56.946Z,6.97
2022-12-13T11:37:33.531Z,10.57
2022-12-13T11:40:05.134Z,18.38
2022-12-13T11:42:44.451Z,11.27
2022-12-13T11:45:22.813Z,11.02
2022-12-13T11:48:09.383Z,9.13
2022-12-13T11:50:39.261Z,11.80
2022-12-13T11:53:41.691Z,11.70
2022-12-13T11:56:33.443Z,11.13
2022-12-13T11:59:17.369Z,8.18
2022-12-13T12:02:40.930Z,12.57
2022-12-13T12:05:28.688Z,8.40
2022-12-13T12:08:31.881Z,8.20
2022-12-13T12:11:02.633Z,10.55
2022-12-13T12:13:50.369Z,8.60
2022-12-13T12:16:36.137Z,7.95
2022-12-13T12:19:19.453Z,7.22
2022-12-13T12:22:41.744Z,9.65
2022-12-13T12:25:23.082Z,8.88
2022-12-13T12:28:14.811Z,37.03
2022-12-13T12:30:59.371Z,12.38
2022-12-13T12:33:58.276Z,9.25
2022-12-13T12:36:44.155Z,7.07
2022-12-13T12:39:42.108Z,7.47
2022-12-13T12:43:11.848Z,6.20
2022-12-13T12:46:00.168Z,9.00
2022-12-13T12:49:00.474Z,5.38
2022-12-13T12:51:46.340Z,4.20
2022-12-13T12:54:32.746Z,6.05
2022-12-13T12:57:15.080Z,7.28
2022-12-13T12:59:52.759Z,7.50
2022-12-13T13:02:32.928Z,6.13
2022-12-13T13:05:24.008Z,7.18
2022-12-13T13:07:59.722Z,5.78
2022-12-13T13:10:28.540Z,5.78
2022-12-13T13:13:11.701Z,5.30
2022-12-13T13:15:40.168Z,4.93
2022-12-13T13:18:46.113Z,8.77
2022-12-13T13:21:31.794Z,5.65
2022-12-13T13:24:01.588Z,6.60
2022-12-13T13:26:36.527Z,4.85
2022-12-13T13:29:37.917Z,3.50
2022-12-13T13:32:29.187Z,6.00
2022-12-13T13:35:33.165Z,3.95
2022-12-13T13:38:04.183Z,3.60
2022-12-13T13:40:35.718Z,4.80
2022-12-13T13:43:05.722Z,5.18
2022-12-13T13:45:59.061Z,3.90
2022-12-13T13:48:58.469Z,4.28
2022-12-13T13:51:49.439Z,5.47
2022-12-13T13:54:43.982Z,4.82
2022-12-13T13:57:10.941Z,7.30
2022-12-13T13:59:53.008Z,5.93
2022-12-13T14:02:57.971Z,6.72
2022-12-13T14:06:13.808Z,5.22
2022-12-13T14:09:00.902Z,7.25
2022-12-13T14:11:36.894Z,6.45
2022-12-13T14:14:22.924Z,6.28
2022-12-13T14:17:21.375Z,4.90
2022-12-13T14:20:16.528Z,6.18
2022-12-13T14:22:59.103Z,5.85
2022-12-13T14:25:52.582Z,5.97
2022-12-13T14:28:25.904Z,5.25
2022-12-13T14:30:57.568Z,8.38
2022-12-13T14:33:26.617Z,4.57
2022-12-13T14:36:01.880Z,6.35
2022-12-13T14:38:31.144Z,8.75
2022-12-13T14:41:01.939Z,4.75
2022-12-13T14:43:32.895Z,5.10
2022-12-13T14:46:02.833Z,5.88
2022-12-13T14:48:56.037Z,5.68
2022-12-13T14:51:34.409Z,7.00
2022-12-13T14:54:04.127Z,6.88
2022-12-13T14:56:31.363Z,7.13
2022-12-13T14:59:00.657Z,7.20
2022-12-13T15:01:31.700Z,5.65
2022-12-13T15:04:26.758Z,6.10
2022-12-13T15:07:03.118Z,7.65
2022-12-13T15:09:31.229Z,12.35
2022-12-13T15:12:15.095Z,6.32
2022-12-13T15:14:51.142Z,4.53
2022-12-13T15:17:35.986Z,5.10
2022-12-13T15:20:31.469Z,6.20
2022-12-13T15:23:12.525Z,7.00
2022-12-13T15:25:42.898Z,9.55
2022-12-13T15:28:18.162Z,6.63
2022-12-13T15:30:48.954Z,10.60
2022-12-13T15:33:33.155Z,17.02
2022-12-13T15:36:15.658Z,16.45
2022-12-13T15:38:45.711Z,9.95
2022-12-13T15:41:18.813Z,12.73
2022-12-13T15:43:52.467Z,11.45
2022-12-13T15:46:28.202Z,15.80
2022-12-13T15:48:57.515Z,10.55
2022-12-13T15:51:28.628Z,9.85
2022-12-13T15:54:09.850Z,9.25
2022-12-13T15:56:39.292Z,11.80
2022-12-13T15:59:24.172Z,11.70
2022-12-13T16:01:57.876Z,11.23
2022-12-13T16:04:32.942Z,13.18
2022-12-13T16:07:01.304Z,9.30
2022-12-13T16:09:34.949Z,10.85
2022-12-13T16:12:07.076Z,9.48
2022-12-13T16:14:48.765Z,8.88
2022-12-13T16:17:26.739Z,10.07
2022-12-13T16:19:56.177Z,7.55
2022-12-13T16:22:24.218Z,9.07
2022-12-13T16:24:52.317Z,7.43
2022-12-13T16:27:19.762Z,7.95
2022-12-13T16:29:46.825Z,8.55
2022-12-13T16:32:14.008Z,8.50
2022-12-13T16:34:41.077Z,9.10
2022-12-13T16:37:26.136Z,11.23
2022-12-13T16:39:55.410Z,8.43
2022-12-13T16:42:26.233Z,12.35
2022-12-13T16:45:17.731Z,11.27
2022-12-13T16:47:48.332Z,10.95
2022-12-13T16:50:19.311Z,12.70
2022-12-13T16:52:47.221Z,13.45
2022-12-13T16:55:15.428Z,11.80
2022-12-13T16:57:42.864Z,10.80
2022-12-13T17:00:13.118Z,10.90
2022-12-13T17:02:42.010Z,10.27
2022-12-13T17:05:09.604Z,22.23
2022-12-13T17:07:37.146Z,17.02
2022-12-13T17:10:05.257Z,27.17
2022-12-13T17:12:33.413Z,30.77
2022-12-13T17:15:02.111Z,39.90
2022-12-13T17:17:29.630Z,42.60
2022-12-13T17:19:57.722Z,38.63
2022-12-13T17:22:29.422Z,38.47
2022-12-13T17:24:57.614Z,36.03
2022-12-13T17:27:25.507Z,28.67
2022-12-13T17:29:54.276Z,29.63
2022-12-13T17:32:23.536Z,29.17
2022-12-13T17:34:54.684Z,27.23
2022-12-13T17:39:49.865Z,23.33
2022-12-13T17:42:17.985Z,22.88
2022-12-13T17:44:45.285Z,21.98
2022-12-13T17:47:13.648Z,20.48
2022-12-13T17:49:41.096Z,21.15
2022-12-13T17:52:08.421Z,23.27
2022-12-13T17:54:36.737Z,33.80
2022-12-13T17:57:04.406Z,26.52
2022-12-13T17:59:31.534Z,34.67
2022-12-13T18:01:59.044Z,24.77
2022-12-13T18:04:26.853Z,23.98
2022-12-13T18:06:54.708Z,21.52
2022-12-13T18:09:22.558Z,19.33
2022-12-13T18:11:50.321Z,21.17
2022-12-13T18:14:17.856Z,19.30
2022-12-13T18:16:45.295Z,16.92
2022-12-13T18:19:15.251Z,19.35
2022-12-13T18:21:48.945Z,15.13
2022-12-13T18:24:17.926Z,14.48
2022-12-13T18:29:16.775Z,15.55
2022-12-13T18:31:44.524Z,13.55
2022-12-13T18:34:13.498Z,11.45
2022-12-13T18:36:41.591Z,12.00
2022-12-13T18:39:11.651Z,12.88
2022-12-13T18:41:41.414Z,17.77
2022-12-13T18:44:11.594Z,14.20
2022-12-13T18:46:43.418Z,16.33
2022-12-13T18:49:14.510Z,17.73
2022-12-13T18:51:42.683Z,13.80
2022-12-13T18:54:10.535Z,14.50
2022-12-13T18:56:40.154Z,15.90
2022-12-13T18:59:22.009Z,12.32
2022-12-13T19:01:50.644Z,18.88
2022-12-13T19:04:19.130Z,14.02
2022-12-13T19:06:48.617Z,15.20
2022-12-13T19:09:17.328Z,19.17
2022-12-13T19:11:46.789Z,17.17
2022-12-13T19:14:15.198Z,18.05
2022-12-13T19:16:44.896Z,14.35
2022-12-13T19:19:16.681Z,15.80
2022-12-13T19:21:45.291Z,13.52
2022-12-13T19:24:18.645Z,13.15
2022-12-13T19:26:49.781Z,10.82
2022-12-13T19:31:50.349Z,11.32
2022-12-13T19:34:20.624Z,11.02
2022-12-13T19:36:49.347Z,11.15
2022-12-13T19:39:18.308Z,13.88
2022-12-13T19:41:47.576Z,12.57
2022-12-13T19:44:16.365Z,15.10
2022-12-13T19:46:46.414Z,14.25
2022-12-13T19:49:17.434Z,13.00
2022-12-13T19:51:45.948Z,11.75
2022-12-13T19:54:15.391Z,13.27
2022-12-13T19:56:46.815Z,12.57
2022-12-13T19:59:15.511Z,14.48
2022-12-13T20:01:47.475Z,13.30
2022-12-13T20:04:21.374Z,13.52
2022-12-13T20:06:51.229Z,13.90
2022-12-13T20:09:19.350Z,10.80
2022-12-13T20:11:47.737Z,14.07
2022-12-13T20:14:15.992Z,12.95
2022-12-13T20:16:44.516Z,12.90
2022-12-13T20:19:13.105Z,13.93
2022-12-13T20:21:46.056Z,11.10
2022-12-13T20:24:14.710Z,15.05
2022-12-13T20:26:43.516Z,16.48
2022-12-13T20:29:15.037Z,11.68
2022-12-13T20:31:48.262Z,15.05
2022-12-13T20:34:17.380Z,10.63
2022-12-13T20:36:50.118Z,16.45
2022-12-13T20:39:18.334Z,19.35
2022-12-13T20:41:46.828Z,14.38
2022-12-13T20:44:15.357Z,14.40
2022-12-13T20:46:43.948Z,14.35
2022-12-13T20:49:12.817Z,14.73
2022-12-13T20:51:42.552Z,19.05
2022-12-13T20:54:11.326Z,16.23
2022-12-13T20:56:40.024Z,18.92
2022-12-13T20:59:11.089Z,15.75
2022-12-13T21:01:44.006Z,13.70
2022-12-13T21:04:17.456Z,17.15
2022-12-13T21:06:45.048Z,16.42
2022-12-13T21:09:13.433Z,17.85
2022-12-13T21:11:47.386Z,14.05
2022-12-13T21:14:22.489Z,15.88
2022-12-13T21:17:02.916Z,15.65
2022-12-13T21:19:39.455Z,25.17
2022-12-13T21:22:07.841Z,24.60
2022-12-13T21:24:35.571Z,34.42
2022-12-13T21:27:03.111Z,38.30
2022-12-13T21:29:30.376Z,38.95
2022-12-13T21:31:57.777Z,39.38
2022-12-13T21:34:26.812Z,36.10
2022-12-13T21:36:54.096Z,36.08
2022-12-13T21:39:24.379Z,52.72
2022-12-13T21:41:52.284Z,22.80
2022-12-13T21:44:20.254Z,38.25
2022-12-13T21:47:11.898Z,30.67
2022-12-13T21:49:35.485Z,26.55
2022-12-13T21:52:02.670Z,23.63
2022-12-13T21:54:29.750Z,19.73
2022-12-13T21:57:15.934Z,16.58
2022-12-13T21:59:43.548Z,15.40
2022-12-13T22:02:19.139Z,18.58
2022-12-13T22:04:54.006Z,16.30
2022-12-13T22:07:32.200Z,18.67
2022-12-13T22:10:02.896Z,21.35
2022-12-13T22:12:34.400Z,17.58
2022-12-13T22:15:01.553Z,18.55
2022-12-13T22:17:35.039Z,15.77
2022-12-13T22:20:08.861Z,18.90
2022-12-13T22:22:37.459Z,18.35
2022-12-13T22:25:05.666Z,25.90
2022-12-13T22:27:32.882Z,19.75
2022-12-13T22:30:01.461Z,20.92
2022-12-13T22:32:30.505Z,21.88
2022-12-13T22:34:57.592Z,20.42
2022-12-13T22:37:24.979Z,23.35
2022-12-13T22:39:52.368Z,24.48
2022-12-13T22:42:20.010Z,18.13
2022-12-13T22:44:47.793Z,18.60
2022-12-13T22:47:15.007Z,18.38
2022-12-13T22:49:42.271Z,21.63
2022-12-13T22:52:09.726Z,14.73
2022-12-13T22:54:36.910Z,16.08
2022-12-13T22:57:04.311Z,19.95
2022-12-13T22:59:31.559Z,17.25
2022-12-13T23:02:02.696Z,18.55
2022-12-13T23:04:33.049Z,19.20
2022-12-13T23:07:00.210Z,18.67
2022-12-13T23:09:27.390Z,17.00
2022-12-13T23:12:12.843Z,16.77
2022-12-13T23:14:40.555Z,20.55
2022-12-13T23:17:07.776Z,29.65
2022-12-13T23:19:49.537Z,53.17
2022-12-13T23:22:24.788Z,44.63
2022-12-13T23:24:52.988Z,33.33
2022-12-13T23:27:22.539Z,20.90
2022-12-13T23:29:49.828Z,17.27
2022-12-13T23:32:17.021Z,19.80
2022-12-13T23:34:44.192Z,14.80
2022-12-13T23:37:11.792Z,16.98
2022-12-13T23:39:38.881Z,15.10
2022-12-13T23:42:06.385Z,15.05
2022-12-13T23:44:33.412Z,13.13
2022-12-13T23:47:00.540Z,13.02
2022-12-13T23:49:28.193Z,14.80
2022-12-13T23:51:55.369Z,20.85
2022-12-13T23:54:22.535Z,13.52
2022-12-13T23:56:49.645Z,13.05
2022-12-13T23:59:16.813Z,13.00
